Time;durP1;ratioP1;P1;durP2;ratioP2;P2;SDS_P1;SDS_P2;PMS_P1;PMS_P2;Temp;Humidity;BMP_temperature;BMP_pressure;BME280_temperature;BME280_humidity;BME280_pressure;Samples;Min_cycle;Max_cycle;Signal;HPM_P1;HPM_P2
2022/01/31 00:01:14;;;;;;;21.98;7.03;;;;;;;;;;6134007;23;20013;-87
2022/01/31 00:03:43;;;;;;;24.30;5.72;;;;;;;;;;6133014;23;20057;-88
2022/01/31 00:06:09;;;;;;;20.13;6.43;;;;;;;;;;6133007;23;20072;-87
2022/01/31 00:08:40;;;;;;;9.85;5.32;;;;;;;;;;6132981;23;20467;-88
2022/01/31 00:11:06;;;;;;;15.32;5.78;;;;;;;;;;6132307;23;20088;-88
2022/01/31 00:13:36;;;;;;;28.55;5.78;;;;;;;;;;6158722;23;20032;-87
2022/01/31 00:16:03;;;;;;;18.58;6.90;;;;;;;;;;6134384;23;20022;-90
2022/01/31 00:18:29;;;;;;;17.92;6.47;;;;;;;;;;6157624;23;20096;-90
2022/01/31 00:20:56;;;;;;;14.82;5.68;;;;;;;;;;6134098;23;20041;-87
2022/01/31 00:23:22;;;;;;;17.25;6.40;;;;;;;;;;6133884;23;20021;-88
2022/01/31 00:25:48;;;;;;;15.02;5.38;;;;;;;;;;6134448;23;20048;-88
2022/01/31 00:28:14;;;;;;;14.70;5.50;;;;;;;;;;6159365;23;20018;-89
2022/01/31 00:30:40;;;;;;;20.83;5.85;;;;;;;;;;6158458;23;20060;-89
2022/01/31 00:33:06;;;;;;;14.48;5.60;;;;;;;;;;6133493;23;20017;-87
2022/01/31 00:35:33;;;;;;;13.93;5.00;;;;;;;;;;6133913;23;20021;-88
2022/01/31 00:38:01;;;;;;;21.25;5.68;;;;;;;;;;6159539;23;20022;-89
2022/01/31 00:40:27;;;;;;;13.73;6.13;;;;;;;;;;6133720;23;20053;-89
2022/01/31 00:42:53;;;;;;;17.63;6.20;;;;;;;;;;6133777;23;20018;-87
2022/01/31 00:45:28;;;;;;;12.50;4.82;;;;;;;;;;6134916;23;20017;-89
2022/01/31 00:50:47;;;;;;;35.88;5.95;;;;;;;;;;6046272;23;20464;-87
2022/01/31 00:53:14;;;;;;;12.70;5.07;;;;;;;;;;6069917;23;20023;-87
2022/01/31 00:55:40;;;;;;;9.65;4.57;;;;;;;;;;6069029;23;20468;-88
2022/01/31 00:58:06;;;;;;;15.80;5.50;;;;;;;;;;6070205;23;20019;-87
2022/01/31 01:00:32;;;;;;;11.95;4.88;;;;;;;;;;6069741;23;20019;-87
2022/01/31 01:02:58;;;;;;;24.77;7.40;;;;;;;;;;6044756;23;20535;-88
2022/01/31 01:05:24;;;;;;;19.15;6.38;;;;;;;;;;6046437;23;20102;-88
2022/01/31 01:07:50;;;;;;;21.70;6.90;;;;;;;;;;6069336;23;20098;-89
2022/01/31 01:10:18;;;;;;;28.75;6.50;;;;;;;;;;6069504;23;20370;-88
2022/01/31 01:12:45;;;;;;;19.92;5.90;;;;;;;;;;6069537;23;20066;-87
2022/01/31 01:15:11;;;;;;;17.02;6.75;;;;;;;;;;6070017;23;20030;-88
2022/01/31 01:17:37;;;;;;;27.23;8.40;;;;;;;;;;6045883;23;20015;-88
2022/01/31 01:20:05;;;;;;;23.08;6.80;;;;;;;;;;6045617;23;20018;-89
2022/01/31 01:22:31;;;;;;;24.75;8.35;;;;;;;;;;6068562;23;20014;-88
2022/01/31 01:24:59;;;;;;;17.63;7.20;;;;;;;;;;6045219;23;20389;-88
2022/01/31 01:27:25;;;;;;;15.57;6.55;;;;;;;;;;6085638;23;20088;-89
2022/01/31 01:30:00;;;;;;;18.90;7.05;;;;;;;;;;6159533;23;20072;-89
2022/01/31 01:32:30;;;;;;;16.65;7.45;;;;;;;;;;6132363;23;20017;-90
2022/01/31 01:35:01;;;;;;;14.75;7.57;;;;;;;;;;6132623;23;20028;-89
2022/01/31 01:37:27;;;;;;;16.98;8.27;;;;;;;;;;6133932;23;20013;-90
2022/01/31 01:39:56;;;;;;;16.52;8.55;;;;;;;;;;6132858;23;20100;-90
2022/01/31 01:42:22;;;;;;;16.23;7.50;;;;;;;;;;6132672;23;20079;-90
2022/01/31 01:44:50;;;;;;;13.20;7.63;;;;;;;;;;6133027;23;20022;-90
2022/01/31 01:47:26;;;;;;;23.35;9.13;;;;;;;;;;6132978;23;20018;-89
2022/01/31 01:49:52;;;;;;;17.33;8.95;;;;;;;;;;6131464;23;20455;-90
2022/01/31 01:52:24;;;;;;;16.40;8.02;;;;;;;;;;6133077;23;20024;-90
2022/01/31 01:54:50;;;;;;;16.00;8.25;;;;;;;;;;6133574;23;20017;-91
2022/01/31 01:57:20;;;;;;;15.43;7.35;;;;;;;;;;6133843;23;20466;-90
2022/01/31 01:59:47;;;;;;;13.43;8.48;;;;;;;;;;6133817;23;20132;-91
2022/01/31 02:02:19;;;;;;;7.97;3.75;;;;;;;;;;6132172;23;20021;-90
2022/01/31 02:04:48;;;;;;;8.30;6.47;;;;;;;;;;6132029;23;20076;-91
2022/01/31 02:07:17;;;;;;;12.52;7.32;;;;;;;;;;6147476;23;20453;-91
2022/01/31 02:09:54;;;;;;;11.40;7.40;;;;;;;;;;6136494;23;20029;-91
2022/01/31 02:12:41;;;;;;;11.55;6.03;;;;;;;;;;6138471;23;20017;-91
2022/01/31 02:15:27;;;;;;;;;;;;;;;;;;;;;
2022/01/31 02:17:56;;;;;;;13.25;7.70;;;;;;;;;;6163269;23;20518;-91
2022/01/31 02:20:25;;;;;;;9.73;6.43;;;;;;;;;;6163620;23;20059;-91
2022/01/31 02:22:52;;;;;;;9.13;6.53;;;;;;;;;;6164256;23;20442;-91
2022/01/31 02:25:18;;;;;;;10.40;6.85;;;;;;;;;;6164555;23;20024;-92
2022/01/31 02:27:45;;;;;;;10.75;6.40;;;;;;;;;;6164028;23;20454;-90
2022/01/31 02:30:23;;;;;;;11.02;7.13;;;;;;;;;;6163043;23;20050;-91
2022/01/31 02:32:49;;;;;;;11.02;6.55;;;;;;;;;;6162647;23;20024;-91
2022/01/31 02:35:15;;;;;;;11.00;6.45;;;;;;;;;;6163218;23;20021;-91
2022/01/31 02:37:41;;;;;;;12.88;7.32;;;;;;;;;;6163159;23;20024;-92
2022/01/31 02:40:10;;;;;;;9.65;6.10;;;;;;;;;;6163917;23;20071;-92
2022/01/31 02:42:36;;;;;;;11.93;7.78;;;;;;;;;;6164219;23;20017;-90
2022/01/31 02:45:05;;;;;;;13.35;8.07;;;;;;;;;;6163608;23;20024;-92
2022/01/31 02:47:38;;;;;;;11.18;7.95;;;;;;;;;;6164111;23;20068;-91
2022/01/31 02:50:15;;;;;;;;;;;3.70;99.90;;;;;;6164175;23;20075;-91
2022/01/31 02:52:56;;;;;;;18.02;7.63;;;;;;;;;;6164818;23;20210;-91
2022/01/31 02:55:23;;;;;;;12.05;6.72;;;;;;;;;;6164273;23;20386;-90
2022/01/31 02:57:51;;;;;;;12.70;7.85;;;;;;;;;;6164089;23;20474;-91
2022/01/31 03:00:28;;;;;;;10.15;7.18;;;;;;;;;;6163518;23;20017;-92
2022/01/31 03:02:57;;;;;;;10.18;8.00;;;;;;;;;;6164131;23;20016;-91
2022/01/31 03:05:23;;;;;;;12.57;7.35;;;;;;;;;;6162116;23;20017;-92
2022/01/31 03:07:52;;;;;;;9.68;6.40;;;;;;;;;;6162975;23;20021;-90
2022/01/31 03:10:21;;;;;;;9.10;6.03;;;;;;;;;;6162336;23;20390;-91
2022/01/31 03:12:47;;;;;;;11.40;6.13;;;;;;;;;;6162749;23;20020;-92
2022/01/31 03:15:13;;;;;;;9.35;5.70;;;;;;;;;;6163050;23;20446;-91
2022/01/31 03:17:42;;;;;;;12.35;3.85;;;;;;;;;;6162955;23;20013;-91
2022/01/31 03:20:18;;;;;;;15.82;4.53;;;;;;;;;;6163536;23;20106;-91
2022/01/31 03:22:48;;;;;;;6.35;3.47;;;;;;;;;;6164106;23;20024;-90
2022/01/31 03:25:14;;;;;;;11.10;3.58;;;;;;;;;;6163210;23;20342;-90
2022/01/31 03:27:40;;;;;;;17.35;5.18;;;;;;;;;;6163944;23;20057;-90
2022/01/31 03:30:08;;;;;;;17.08;5.85;;;;;;;;;;6162002;23;20013;-88
2022/01/31 03:32:37;;;;;;;29.48;5.90;;;;;;;;;;6162436;23;20017;-88
2022/01/31 03:35:04;;;;;;;33.22;5.20;;;;;;;;;;6163284;23;20021;-88
2022/01/31 03:37:31;;;;;;;14.45;4.22;;;;;;;;;;6162702;23;20122;-88
2022/01/31 03:39:57;;;;;;;14.32;4.70;;;;;;;;;;6163179;23;20024;-89
2022/01/31 03:42:23;;;;;;;20.00;4.95;;;;;;;;;;6163923;23;20017;-89
2022/01/31 03:44:53;;;;;;;25.10;6.30;;;;;;;;;;6161946;23;20052;-89
2022/01/31 03:47:21;;;;;;;18.13;3.92;;;;;;;;;;6162495;23;20028;-87
2022/01/31 03:49:47;;;;;;;25.67;5.00;;;;;;;;;;6162189;23;20101;-88
2022/01/31 03:52:13;;;;;;;16.67;4.05;;;;;;;;;;6162110;23;20057;-88
2022/01/31 03:54:39;;;;;;;11.88;4.88;;;;;;;;;;6162301;23;20095;-88
2022/01/31 03:57:05;;;;;;;17.33;3.67;;;;;;;;;;6163511;23;20013;-88
2022/01/31 03:59:32;;;;;;;10.10;2.47;;;;;;;;;;6163661;23;20072;-87
2022/01/31 04:01:58;;;;;;;19.67;3.75;;;;;;;;;;6163847;23;20448;-87
2022/01/31 04:04:27;;;;;;;11.15;3.22;;;;;;;;;;6162103;23;20336;-88
2022/01/31 04:06:54;;;;;;;17.55;3.67;;;;;;;;;;6161970;23;20635;-87
2022/01/31 04:09:20;;;;;;;12.55;3.53;;;;;;;;;;6162026;23;20029;-87
2022/01/31 04:11:46;;;;;;;12.32;3.40;;;;;;;;;;6161600;23;20514;-88
2022/01/31 04:14:16;;;;;;;3.95;2.25;;;;;;;;;;6161034;23;20017;-90
2022/01/31 04:16:42;;;;;;;8.60;2.33;;;;;;;;;;6162306;23;20522;-88
2022/01/31 04:19:08;;;;;;;4.38;1.77;;;;;;;;;;6162239;23;20036;-89
2022/01/31 04:21:34;;;;;;;6.43;1.90;;;;;;;;;;6162145;23;20079;-88
2022/01/31 04:24:00;;;;;;;6.80;1.92;;;;;;;;;;6161872;23;20427;-87
2022/01/31 04:26:33;;;;;;;10.90;2.40;;;;;;;;;;6161487;23;20443;-87
2022/01/31 04:29:09;;;;;;;12.52;1.88;;;;;;;;;;6161127;23;20013;-88
2022/01/31 04:34:01;;;;;;;14.35;2.80;;;;;;;;;;6188080;23;20454;-87
2022/01/31 04:36:27;;;;;;;9.02;3.17;;;;;;;;;;6188683;23;20078;-87
2022/01/31 04:38:53;;;;;;;13.93;3.00;;;;;;;;;;6161580;23;20191;-87
2022/01/31 04:41:20;;;;;;;18.85;2.67;;;;;;;;;;6162052;23;20055;-87
2022/01/31 04:43:48;;;;;;;17.02;3.67;;;;;;;;;;6162884;23;20021;-87
2022/01/31 04:46:15;;;;;;;19.25;3.35;;;;;;;;;;6161501;23;20013;-87
2022/01/31 04:48:43;;;;;;;17.77;3.75;;;;;;;;;;6161689;23;20095;-86
2022/01/31 04:51:10;;;;;;;18.52;3.05;;;;;;;;;;6188200;23;20017;-87
2022/01/31 04:53:36;;;;;;;26.48;4.78;;;;;;;;;;6162171;23;20458;-87
2022/01/31 04:56:03;;;;;;;13.30;3.20;;;;;;;;;;6161686;23;20450;-87
2022/01/31 04:58:31;;;;;;;16.88;3.53;;;;;;;;;;6160977;23;20017;-88
2022/01/31 05:00:57;;;;;;;10.05;2.50;;;;;;;;;;6187475;23;20017;-87
2022/01/31 05:03:23;;;;;;;17.13;3.92;;;;;;;;;;6161197;23;20021;-88
2022/01/31 05:05:49;;;;;;;5.13;1.60;;;;;;;;;;6162879;23;20024;-88
2022/01/31 05:08:17;;;;;;;3.88;1.67;;;;;;;;;;6186330;23;20023;-88
2022/01/31 05:10:46;;;;;;;10.90;1.90;;;;;;;;;;6161925;23;20084;-88
2022/01/31 05:13:13;;;;;;;8.82;2.00;;;;;;;;;;6161871;23;20412;-88
2022/01/31 05:15:39;;;;;;;7.93;1.85;;;;;;;;;;6162701;23;20024;-87
2022/01/31 05:18:06;;;;;;;7.68;3.70;;;;;;;;;;6162017;23;20017;-88
2022/01/31 05:20:32;;;;;;;5.85;2.25;;;;;;;;;;6161468;23;20038;-89
2022/01/31 05:22:58;;;;;;;4.88;1.77;;;;;;;;;;6186449;23;20013;-88
2022/01/31 05:25:24;;;;;;;8.38;2.22;;;;;;;;;;6161317;23;20021;-88
2022/01/31 05:27:50;;;;;;;19.83;2.80;;;;;;;;;;6161174;23;20017;-87
2022/01/31 05:30:17;;;;;;;11.07;2.38;;;;;;;;;;6161957;23;20334;-88
2022/01/31 05:32:46;;;;;;;5.57;1.80;;;;;;;;;;6161002;23;20437;-88
2022/01/31 05:35:15;;;;;;;10.52;2.15;;;;;;;;;;6160961;23;20025;-89
2022/01/31 05:37:42;;;;;;;6.68;1.48;;;;;;;;;;6185604;23;20083;-88
2022/01/31 05:40:08;;;;;;;14.00;1.77;;;;;;;;;;6187688;23;20347;-89
2022/01/31 05:42:34;;;;;;;9.48;2.13;;;;;;;;;;6160403;23;20347;-89
2022/01/31 05:45:03;;;;;;;9.80;2.38;;;;;;;;;;6162139;23;20028;-88
2022/01/31 05:47:29;;;;;;;9.38;3.50;;;;;;;;;;6162355;23;20025;-89
2022/01/31 05:49:55;;;;;;;9.60;1.83;;;;;;;;;;6161876;23;20092;-89
2022/01/31 05:52:21;;;;;;;14.02;2.42;;;;;;;;;;6189978;23;20021;-88
2022/01/31 05:54:48;;;;;;;6.95;1.88;;;;;;;;;;6162651;23;20017;-89
2022/01/31 05:57:14;;;;;;;7.18;1.55;;;;;;;;;;6162484;23;20057;-89
2022/01/31 05:59:41;;;;;;;10.98;2.67;;;;;;;;;;6162249;23;20024;-89
2022/01/31 06:02:07;;;;;;;11.05;2.13;;;;;;;;;;6161903;23;20013;-89
2022/01/31 06:04:33;;;;;;;6.07;2.38;;;;;;;;;;6161607;23;20060;-89
2022/01/31 06:07:00;;;;;;;7.30;2.67;;;;;;;;;;6161632;23;20025;-89
2022/01/31 06:09:27;;;;;;;5.07;1.80;;;;;;;;;;6162977;23;20017;-89
2022/01/31 06:11:54;;;;;;;13.68;2.20;;;;;;;;;;6163534;23;20059;-88
2022/01/31 06:14:24;;;;;;;8.80;2.33;;;;;;;;;;6161972;23;20028;-89
2022/01/31 06:16:53;;;;;;;15.10;2.50;;;;;;;;;;6161914;23;20151;-90
2022/01/31 06:19:20;;;;;;;14.00;2.38;;;;;;;;;;6162285;23;20477;-89
2022/01/31 06:21:51;;;;;;;4.95;2.30;;;;;;;;;;6162124;23;20017;-88
2022/01/31 06:24:17;;;;;;;9.68;2.42;;;;;;;;;;6163029;23;20017;-88
2022/01/31 06:26:44;;;;;;;9.35;2.58;;;;;;;;;;6162936;23;20465;-89
2022/01/31 06:29:10;;;;;;;8.57;2.17;;;;;;;;;;6162059;23;20390;-89
2022/01/31 06:31:36;;;;;;;8.40;1.92;;;;;;;;;;6162098;23;20013;-89
2022/01/31 06:34:02;;;;;;;7.35;2.25;;;;;;;;;;6162283;23;20021;-89
2022/01/31 06:36:29;;;;;;;4.25;1.52;;;;;;;;;;6162243;23;20021;-88
2022/01/31 06:38:55;;;;;;;10.70;1.90;;;;;;;;;;6161681;23;20017;-89
2022/01/31 06:41:22;;;;;;;6.55;1.80;;;;;;;;;;6161325;23;20291;-89
2022/01/31 06:43:48;;;;;;;10.90;2.90;;;;;;;;;;6160436;23;20453;-90
2022/01/31 06:46:18;;;;;;;4.32;1.83;;;;;;;;;;6162170;23;20017;-90
2022/01/31 06:48:44;;;;;;;2.97;2.05;;;;;;;;;;6162342;23;20103;-90
2022/01/31 06:51:10;;;;;;;4.55;2.10;;;;;;;;;;6162738;23;20024;-89
2022/01/31 06:53:37;;;;;;;9.25;2.13;;;;;;;;;;6162067;23;20450;-88
2022/01/31 06:56:03;;;;;;;8.10;2.15;;;;;;;;;;6161837;23;20060;-89
2022/01/31 06:58:30;;;;;;;6.60;3.47;;;;;;;;;;6162131;23;20056;-89
2022/01/31 07:00:58;;;;;;;9.30;2.40;;;;;;;;;;6161984;23;20447;-88
2022/01/31 07:03:24;;;;;;;6.53;2.30;;;;;;;;;;6161747;23;20035;-88
2022/01/31 07:05:50;;;;;;;12.15;2.97;;;;;;;;;;6161079;23;20017;-88
2022/01/31 07:08:17;;;;;;;13.27;2.55;;;;;;;;;;6161584;23;20032;-88
2022/01/31 07:10:51;;;;;;;9.75;2.20;;;;;;;;;;6161837;23;20020;-89
2022/01/31 07:14:01;;;;;;;8.30;1.90;;;;;;;;;;6162275;23;20096;-88
2022/01/31 07:16:10;;;;;;;7.03;1.48;;;;;;;;;;6158156;23;20024;-88
2022/01/31 07:18:37;;;;;;;7.88;2.78;;;;;;;;;;6161900;23;20466;-89
2022/01/31 07:21:11;;;;;;;7.55;1.63;;;;;;;;;;6161499;23;20117;-90
2022/01/31 07:24:03;;;;;;;5.72;1.58;;;;;;;;;;6159233;23;20017;-91
2022/01/31 07:26:34;;;;;;;;;;;5.50;99.90;;;;;;6082944;23;20021;-89
2022/01/31 07:29:04;;;;;;;6.88;1.30;;;;;;;;;;6136451;23;20389;-91
2022/01/31 07:31:44;;;;;;;4.95;2.20;;;;;;;;;;6138061;23;20032;-92
2022/01/31 07:34:15;;;;;;;4.22;1.70;;;;;;;;;;6162243;23;20075;-91
2022/01/31 07:36:42;;;;;;;4.63;1.33;;;;;;;;;;6135014;23;20017;-90
2022/01/31 07:39:12;;;;;;;3.45;1.60;;;;;;;;;;6134057;23;20036;-89
2022/01/31 07:41:49;;;;;;;5.78;1.42;;;;;;;;;;6135531;23;20029;-90
2022/01/31 07:52:08;;;;;;;6.80;2.45;;;;;;;;;;6185844;23;20336;-90
2022/01/31 07:54:40;;;;;;;4.35;1.75;;;;;;;;;;6139107;23;20443;-91
2022/01/31 07:57:08;;;;;;;9.32;2.20;;;;;;;;;;6138089;23;20081;-90
2022/01/31 07:59:37;;;;;;;10.40;2.13;;;;;;;;;;6138911;23;20103;-90
2022/01/31 08:02:06;;;;;;;7.03;1.90;;;;;;;;;;6139427;23;20028;-90
2022/01/31 08:04:38;;;;;;;9.52;2.08;;;;;;;;;;6136772;23;20049;-90
2022/01/31 08:07:04;;;;;;;9.02;1.88;;;;;;;;;;6137725;23;20408;-88
2022/01/31 08:09:30;;;;;;;6.32;1.70;;;;;;;;;;6135621;23;20091;-89
2022/01/31 08:11:56;;;;;;;6.53;1.80;;;;;;;;;;6135921;23;20021;-90
2022/01/31 08:14:22;;;;;;;12.80;3.30;;;;;;;;;;6160164;23;20024;-89
2022/01/31 08:16:48;;;;;;;6.00;1.55;;;;;;;;;;6161815;23;20103;-89
2022/01/31 08:19:14;;;;;;;6.72;1.65;;;;;;;;;;6160430;23;20013;-89
2022/01/31 08:21:40;;;;;;;12.20;2.53;;;;;;;;;;6161222;23;20017;-90
2022/01/31 08:24:06;;;;;;;3.85;1.45;;;;;;;;;;6162232;23;20075;-89
2022/01/31 08:26:33;;;;;;;9.30;2.13;;;;;;;;;;6160817;23;20017;-89
2022/01/31 08:29:04;;;;;;;8.27;2.15;;;;;;;;;;6161163;23;20021;-88
2022/01/31 08:31:38;;;;;;;7.13;1.88;;;;;;;;;;6161754;23;20008;-90
2022/01/31 08:36:42;;;;;;;7.32;1.92;;;;;;;;;;6161502;23;20100;-91
2022/01/31 08:39:13;;;;;;;7.55;2.13;;;;;;;;;;6159330;23;20021;-90
2022/01/31 08:41:43;;;;;;;9.32;2.30;;;;;;;;;;6162372;23;20048;-91
2022/01/31 08:44:14;;;;;;;8.48;1.85;;;;;;;;;;6161570;23;20019;-91
2022/01/31 08:46:40;;;;;;;10.13;2.13;;;;;;;;;;6161684;23;20513;-89
2022/01/31 08:49:10;;;;;;;13.35;2.70;;;;;;;;;;6160626;23;20052;-90
2022/01/31 08:51:37;;;;;;;5.30;1.88;;;;;;;;;;6160200;23;20025;-89
2022/01/31 08:54:07;;;;;;;16.95;2.17;;;;;;;;;;6160316;23;20027;-91
2022/01/31 08:56:39;;;;;;;12.25;1.73;;;;;;;;;;6160282;23;20021;-89
2022/01/31 08:59:07;;;;;;;11.82;3.85;;;;;;;;;;6160109;23;20387;-91
2022/01/31 09:01:33;;;;;;;10.68;1.75;;;;;;;;;;6160517;23;20024;-91
2022/01/31 09:04:04;;;;;;;13.98;1.83;;;;;;;;;;6160812;23;20013;-90
2022/01/31 09:06:31;;;;;;;10.38;2.75;;;;;;;;;;6161195;23;20025;-90
2022/01/31 09:08:58;;;;;;;9.55;2.15;;;;;;;;;;6160522;23;20013;-88
2022/01/31 09:11:25;;;;;;;7.75;1.63;;;;;;;;;;6160200;23;20013;-90
2022/01/31 09:13:51;;;;;;;5.47;1.52;;;;;;;;;;6161304;23;20017;-89
2022/01/31 09:16:17;;;;;;;6.05;1.77;;;;;;;;;;6160320;23;20020;-90
2022/01/31 09:18:43;;;;;;;6.05;1.40;;;;;;;;;;6159556;23;20447;-88
2022/01/31 09:21:09;;;;;;;11.90;2.55;;;;;;;;;;6159576;23;20028;-89
2022/01/31 09:23:37;;;;;;;8.07;1.73;;;;;;;;;;6159555;23;20017;-88
2022/01/31 09:26:03;;;;;;;13.35;1.40;;;;;;;;;;6159703;23;20013;-87
2022/01/31 09:28:30;;;;;;;6.13;1.83;;;;;;;;;;6159978;23;20020;-87
2022/01/31 09:30:56;;;;;;;4.15;1.77;;;;;;;;;;6159511;23;20347;-89
2022/01/31 09:33:25;;;;;;;9.75;2.70;;;;;;;;;;6159825;23;20047;-88
2022/01/31 09:35:51;;;;;;;6.32;1.73;;;;;;;;;;6159849;23;20103;-87
2022/01/31 09:38:22;;;;;;;8.55;2.17;;;;;;;;;;6159509;23;20081;-87
2022/01/31 09:40:48;;;;;;;7.28;1.67;;;;;;;;;;6159438;23;20021;-87
2022/01/31 09:51:01;;;;;;;11.32;1.50;;;;;;;;;;6159050;23;20028;-88
2022/01/31 09:53:28;;;;;;;6.53;1.92;;;;;;;;;;6159510;23;20025;-87
2022/01/31 09:55:55;;;;;;;8.10;2.30;;;;;;;;;;6159542;23;20017;-88
2022/01/31 09:58:21;;;;;;;6.22;1.90;;;;;;;;;;6159384;23;20024;-88
2022/01/31 10:00:47;;;;;;;4.53;1.88;;;;;;;;;;6159827;23;20013;-88
2022/01/31 10:03:13;;;;;;;11.38;2.50;;;;;;;;;;6159909;23;20077;-87
2022/01/31 10:05:40;;;;;;;8.07;2.65;;;;;;;;;;6159773;23;20451;-88
2022/01/31 10:08:13;;;;;;;17.00;2.25;;;;;;;;;;6159570;23;20346;-87
2022/01/31 10:10:41;;;;;;;19.55;3.17;;;;;;;;;;6159613;23;20462;-87
2022/01/31 10:16:27;;;;;;;14.63;1.55;;;6.80;99.90;;;;;;6071518;23;20062;-87
2022/01/31 10:19:05;;;;;;;5.38;1.95;;;;;;;;;;6070897;23;20050;-88
2022/01/31 10:21:32;;;;;;;5.72;1.75;;;;;;;;;;6095048;23;20110;-89
2022/01/31 10:23:58;;;;;;;5.32;1.55;;;;;;;;;;6070795;23;20046;-89
2022/01/31 10:26:30;;;;;;;4.57;2.00;;;6.90;99.90;;;;;;6070886;23;20015;-88
2022/01/31 10:29:12;;;;;;;9.40;3.70;;;;;;;;;;6072096;23;20101;-88
2022/01/31 10:31:38;;;;;;;8.30;3.22;;;;;;;;;;6072723;23;20025;-88
2022/01/31 10:34:18;;;;;;;6.28;2.47;;;6.80;99.90;;;;;;6096604;23;20057;-87
2022/01/31 10:36:44;;;;;;;17.73;2.47;;;;;;;;;;6050329;23;20121;-87
2022/01/31 10:39:15;;;;;;;11.73;2.28;;;;;;;;;;6073059;23;20440;-88
2022/01/31 10:53:07;;;;;;;7.15;2.10;;;;;;;;;;6120203;23;20032;-87
2022/01/31 10:55:33;;;;;;;11.23;4.20;;;;;;;;;;6158365;23;20039;-87
2022/01/31 10:58:07;;;;;;;14.52;3.55;;;;;;;;;;6160885;23;20017;-88
2022/01/31 11:00:34;;;;;;;15.88;2.67;;;;;;;;;;6160627;23;20029;-87
2022/01/31 11:03:20;;;;;;;12.18;2.50;;;;;;;;;;6157251;23;20474;-89
2022/01/31 11:05:50;;;;;;;11.32;2.83;;;;;;;;;;6156853;23;20095;-89
2022/01/31 11:08:17;;;;;;;12.65;2.78;;;;;;;;;;6159158;23;20069;-89
2022/01/31 11:10:43;;;;;;;8.80;3.00;;;;;;;;;;6159727;23;20032;-89
2022/01/31 11:13:09;;;;;;;14.55;3.00;;;;;;;;;;6157019;23;20131;-90
2022/01/31 11:15:37;;;;;;;14.40;3.30;;;;;;;;;;6157096;23;20045;-89
2022/01/31 11:18:06;;;;;;;10.73;3.80;;;;;;;;;;6156837;23;20431;-89
2022/01/31 11:20:32;;;;;;;14.48;3.10;;;;;;;;;;6156405;23;20025;-89
2022/01/31 11:22:59;;;;;;;13.32;2.55;;;;;;;;;;6156379;23;20020;-90
2022/01/31 11:25:27;;;;;;;5.45;2.28;;;;;;;;;;6157951;23;20017;-88
2022/01/31 11:27:54;;;;;;;15.98;2.40;;;;;;;;;;6159131;23;20021;-89
2022/01/31 11:30:22;;;;;;;10.38;2.35;;;;;;;;;;6161869;23;20064;-90
2022/01/31 11:32:48;;;;;;;14.45;2.38;;;;;;;;;;6160185;23;20020;-90
2022/01/31 11:35:14;;;;;;;9.50;2.75;;;;;;;;;;6160006;23;20300;-90
2022/01/31 11:37:40;;;;;;;15.70;3.17;;;;;;;;;;6160832;23;20570;-92
2022/01/31 11:40:09;;;;;;;12.25;2.42;;;;;;;;;;6160878;23;20040;-90
2022/01/31 11:42:35;;;;;;;7.90;2.22;;;;;;;;;;6158201;23;20013;-89
2022/01/31 11:45:21;;;;;;;14.90;2.92;;;;;;;;;;6159257;23;20346;-90
2022/01/31 11:47:49;;;;;;;14.55;3.38;;;;;;;;;;6160183;23;20017;-90
2022/01/31 11:50:16;;;;;;;15.23;2.78;;;;;;;;;;6160084;23;20277;-86
2022/01/31 11:52:47;;;;;;;12.25;3.35;;;;;;;;;;6157423;23;20092;-87
2022/01/31 11:55:14;;;;;;;6.32;3.38;;;;;;;;;;6159207;23;20047;-89
2022/01/31 11:57:40;;;;;;;7.93;1.92;;;;;;;;;;6161086;23;20020;-88
2022/01/31 12:00:11;;;;;;;20.75;3.25;;;;;;;;;;6159887;23;20028;-86
2022/01/31 12:02:42;;;;;;;18.48;3.67;;;;;;;;;;6160074;23;20495;-88
2022/01/31 12:05:09;;;;;;;10.50;2.42;;;;;;;;;;6158961;23;20032;-87
2022/01/31 12:07:39;;;;;;;13.00;2.50;;;;;;;;;;6158846;23;20028;-88
2022/01/31 12:10:06;;;;;;;23.10;3.67;;;;;;;;;;6159933;23;20021;-88
2022/01/31 12:12:42;;;;;;;14.00;2.40;;;;;;;;;;6159970;23;20028;-87
2022/01/31 12:16:21;;;;;;;9.65;2.40;;;;;;;;;;6160671;23;20021;-89
2022/01/31 12:18:33;;;;;;;19.27;3.22;;;;;;;;;;6150232;23;20463;-89
2022/01/31 12:23:50;;;;;;;15.27;3.00;;;;;;;;;;6160234;23;20083;-87
2022/01/31 12:26:49;;;;;;;14.57;3.30;;;7.70;99.90;;;;;;6160088;23;20096;-87
2022/01/31 12:29:21;;;;;;;13.70;3.15;;;7.70;99.90;;;;;;6159692;23;20076;-89
2022/01/31 12:31:54;;;;;;;17.15;3.03;;;7.90;99.90;;;;;;6135938;23;20024;-88
2022/01/31 12:34:21;;;;;;;12.00;2.23;;;;;;;;;;6160314;23;20016;-86
2022/01/31 12:36:51;;;;;;;18.70;2.92;;;;;;;;;;6157220;23;20096;-87
2022/01/31 12:39:37;;;;;;;11.90;2.58;;;;;;;;;;6156834;23;20092;-88
2022/01/31 12:42:46;;;;;;;20.20;4.82;;;7.80;99.90;;;;;;6159179;23;20147;-87
2022/01/31 12:45:13;;;;;;;21.00;3.85;;;;;;;;;;6134698;23;20036;-87
2022/01/31 12:47:59;;;;;;;12.73;4.70;;;;;;;;;;6160074;23;20013;-88
2022/01/31 12:50:25;;;;;;;17.80;2.70;;;;;;;;;;6160128;23;20428;-88
2022/01/31 12:52:51;;;;;;;17.40;4.15;;;;;;;;;;6159567;23;20458;-87
2022/01/31 12:55:19;;;;;;;10.48;2.75;;;;;;;;;;6160194;23;20025;-87
2022/01/31 12:57:52;;;;;;;15.23;2.88;;;7.90;99.90;;;;;;6160585;23;20426;-88
2022/01/31 13:00:32;;;;;;;29.60;3.75;;;;;;;;;;6160331;23;20025;-88
2022/01/31 13:02:59;;;;;;;12.82;2.80;;;;;;;;;;6160418;23;20060;-88
2022/01/31 13:05:51;;;;;;;15.52;3.22;;;;;;;;;;6160878;23;20017;-88
2022/01/31 13:08:18;;;;;;;13.02;3.38;;;;;;;;;;6158294;23;20044;-89
2022/01/31 13:10:44;;;;;;;18.83;4.88;;;;;;;;;;6160659;23;20017;-89
2022/01/31 13:13:10;;;;;;;14.45;4.28;;;;;;;;;;6159531;23;20023;-88
2022/01/31 13:15:36;;;;;;;18.02;4.28;;;;;;;;;;6158984;23;20021;-88
2022/01/31 13:18:06;;;;;;;19.33;4.05;;;;;;;;;;6159788;23;20092;-88
2022/01/31 13:20:33;;;;;;;18.05;4.18;;;;;;;;;;6159887;23;20407;-89
2022/01/31 13:23:00;;;;;;;11.45;3.20;;;;;;;;;;6159241;23;20518;-87
2022/01/31 13:25:27;;;;;;;21.30;4.25;;;;;;;;;;6159922;23;20151;-88
2022/01/31 13:27:53;;;;;;;27.65;4.07;;;;;;;;;;6159511;23;20013;-88
2022/01/31 13:30:23;;;;;;;18.73;4.28;;;;;;;;;;6159829;23;20039;-89
2022/01/31 13:32:49;;;;;;;19.15;3.92;;;;;;;;;;6159817;23;20433;-88
2022/01/31 13:35:20;;;;;;;30.63;4.05;;;;;;;;;;6158845;23;20459;-88
2022/01/31 13:37:46;;;;;;;12.52;3.28;;;;;;;;;;6159861;23;20017;-89
2022/01/31 13:40:13;;;;;;;13.98;4.32;;;;;;;;;;6161241;23;20017;-88
2022/01/31 13:42:41;;;;;;;18.48;6.60;;;;;;;;;;6160679;23;20112;-87
2022/01/31 13:45:40;;;;;;;13.70;3.22;;;;;;;;;;6160755;23;20067;-88
2022/01/31 13:48:26;;;;;;;11.25;3.00;;;;;;;;;;6159347;23;20451;-87
2022/01/31 13:50:57;;;;;;;8.88;3.45;;;;;;;;;;6161303;23;20021;-89
2022/01/31 13:53:23;;;;;;;13.07;3.33;;;;;;;;;;6160505;23;20017;-89
2022/01/31 13:55:54;;;;;;;17.83;3.40;;;;;;;;;;6160283;23;20021;-87
2022/01/31 13:58:23;;;;;;;9.00;2.25;;;;;;;;;;6160984;23;20009;-89
2022/01/31 14:00:49;;;;;;;7.90;2.30;;;;;;;;;;6160506;23;20320;-88
2022/01/31 14:03:17;;;;;;;14.60;2.72;;;;;;;;;;6160469;23;20022;-89
2022/01/31 14:05:53;;;;;;;14.90;3.55;;;;;;;;;;6159081;23;20328;-89
2022/01/31 14:08:25;;;;;;;16.48;3.15;;;;;;;;;;6161400;23;20024;-88
2022/01/31 14:11:02;;;;;;;14.73;2.72;;;;;;;;;;6160383;23;20017;-89
2022/01/31 14:13:30;;;;;;;11.88;3.05;;;;;;;;;;6161140;23;20017;-88
2022/01/31 14:15:56;;;;;;;13.05;3.10;;;;;;;;;;6161594;23;20052;-89
2022/01/31 14:18:23;;;;;;;5.85;2.35;;;;;;;;;;6162497;23;20020;-90
2022/01/31 14:20:54;;;;;;;4.20;2.13;;;7.70;99.90;;;;;;6162429;23;20076;-88
2022/01/31 14:23:20;;;;;;;12.55;2.25;;;;;;;;;;6137046;23;20023;-87
2022/01/31 14:25:48;;;;;;;10.88;2.92;;;;;;;;;;6161874;23;20013;-89
2022/01/31 14:28:15;;;;;;;3.83;1.70;;;;;;;;;;6187398;23;20149;-89
2022/01/31 14:30:45;;;;;;;14.93;2.30;;;;;;;;;;6161374;23;20009;-89
2022/01/31 14:33:12;;;;;;;5.78;2.13;;;;;;;;;;6161483;23;20110;-88
2022/01/31 14:35:38;;;;;;;6.65;2.25;;;;;;;;;;6161379;23;20195;-88
2022/01/31 14:38:15;;;;;;;6.15;2.22;;;;;;;;;;6162243;23;20427;-88
2022/01/31 14:41:05;;;;;;;17.88;2.63;;;;;;;;;;6161272;23;20069;-90
2022/01/31 14:49:04;;;;;;;6.95;2.35;;;;;;;;;;6161382;23;20021;-88
2022/01/31 14:51:31;;;;;;;5.55;1.73;;;;;;;;;;6161218;23;20028;-87
2022/01/31 14:54:02;;;;;;;17.80;3.28;;;;;;;;;;6160528;23;20087;-88
2022/01/31 14:56:30;;;;;;;7.50;3.47;;;;;;;;;;6161565;23;20024;-88
2022/01/31 14:58:56;;;;;;;15.13;3.78;;;;;;;;;;6161731;23;20028;-88
2022/01/31 15:01:22;;;;;;;11.73;5.93;;;;;;;;;;6162590;23;20013;-88
2022/01/31 15:03:50;;;;;;;11.00;5.50;;;;;;;;;;6162911;23;20029;-88
2022/01/31 15:06:16;;;;;;;15.93;5.80;;;;;;;;;;6161729;23;20092;-88
2022/01/31 15:08:42;;;;;;;14.73;5.70;;;;;;;;;;6160912;23;20092;-87
2022/01/31 15:11:14;;;;;;;11.07;5.05;;;;;;;;;;6161717;23;20021;-88
2022/01/31 15:13:42;;;;;;;12.45;5.03;;;;;;;;;;6163260;23;20323;-87
2022/01/31 15:16:14;;;;;;;10.25;5.05;;;;;;;;;;6161708;23;20064;-87
2022/01/31 15:18:40;;;;;;;13.05;5.05;;;;;;;;;;6161294;23;20009;-87
2022/01/31 15:21:07;;;;;;;10.10;4.38;;;;;;;;;;6160881;23;20075;-89
2022/01/31 15:23:38;;;;;;;13.52;5.88;;;;;;;;;;6161831;23;20447;-89
2022/01/31 15:26:23;;;;;;;11.90;4.40;;;;;;;;;;6161720;23;20017;-89
2022/01/31 15:28:49;;;;;;;10.32;4.07;;;;;;;;;;6161323;23;20273;-90
2022/01/31 15:31:17;;;;;;;9.07;3.95;;;;;;;;;;6162476;23;20021;-90